createdAt,value
2022-10-26T00:00:43.119Z,11.80
2022-10-26T00:05:51.450Z,12.87
2022-10-26T00:10:57.927Z,14.70
2022-10-26T00:16:02.234Z,14.33
2022-10-26T00:21:10.777Z,14.10
2022-10-26T00:26:15.381Z,14.63
2022-10-26T00:31:19.402Z,17.43
2022-10-26T00:36:27.769Z,11.40
2022-10-26T00:41:32.430Z,12.68
2022-10-26T00:46:39.989Z,14.80
2022-10-26T00:51:49.387Z,17.97
2022-10-26T00:56:52.312Z,15.87
2022-10-26T01:01:56.394Z,16.02
2022-10-26T01:07:17.025Z,17.93
2022-10-26T01:12:31.637Z,19.40
2022-10-26T01:17:47.932Z,20.65
2022-10-26T01:23:16.176Z,19.07
2022-10-26T01:28:37.066Z,20.27
2022-10-26T01:33:45.891Z,18.23
2022-10-26T01:39:11.970Z,22.33
2022-10-26T01:44:23.585Z,19.60
2022-10-26T01:49:33.784Z,20.13
2022-10-26T02:00:05.094Z,20.43
2022-10-26T02:05:27.807Z,21.37
2022-10-26T02:11:06.323Z,18.97
2022-10-26T02:16:45.012Z,16.30
2022-10-26T02:21:55.084Z,15.73
2022-10-26T02:26:59.601Z,16.23
2022-10-26T02:32:06.689Z,17.20
2022-10-26T02:37:09.360Z,18.57
2022-10-26T02:42:11.747Z,17.27
2022-10-26T02:47:16.388Z,21.80
2022-10-26T02:52:24.607Z,24.13
2022-10-26T02:57:41.140Z,22.77
2022-10-26T03:02:47.742Z,22.13
2022-10-26T03:07:52.934Z,25.63
2022-10-26T03:12:54.857Z,24.03
2022-10-26T03:17:56.601Z,26.17
2022-10-26T03:23:01.273Z,27.93
2022-10-26T03:28:04.508Z,24.80
2022-10-26T03:33:12.734Z,21.87
2022-10-26T03:38:15.994Z,25.73
2022-10-26T03:43:22.891Z,31.37
2022-10-26T03:48:24.687Z,30.93
2022-10-26T03:53:27.040Z,34.37
2022-10-26T03:58:28.839Z,30.30
2022-10-26T04:03:34.130Z,34.77
2022-10-26T04:08:35.965Z,35.70
2022-10-26T04:13:38.212Z,33.53
2022-10-26T04:18:42.221Z,34.07
2022-10-26T04:23:46.711Z,33.20
2022-10-26T04:28:48.510Z,31.10
2022-10-26T04:33:50.372Z,32.60
2022-10-26T04:38:57.320Z,36.63
2022-10-26T04:44:02.596Z,31.40
2022-10-26T04:49:04.813Z,33.10
2022-10-26T04:54:07.244Z,36.67
2022-10-26T04:59:09.283Z,35.27
2022-10-26T05:04:22.907Z,36.03
2022-10-26T05:09:26.806Z,33.33
2022-10-26T05:14:30.947Z,30.00
2022-10-26T05:19:34.961Z,36.33
2022-10-26T05:24:36.812Z,32.87
2022-10-26T05:29:40.826Z,33.73
2022-10-26T05:34:53.373Z,33.00
2022-10-26T05:39:59.748Z,31.87
2022-10-26T05:45:03.979Z,37.60
2022-10-26T05:50:08.797Z,35.27
2022-10-26T05:55:17.802Z,39.77
2022-10-26T06:00:24.121Z,31.60
2022-10-26T06:05:28.642Z,33.50
2022-10-26T06:10:34.985Z,31.83
2022-10-26T06:16:04.226Z,31.07
2022-10-26T06:21:27.242Z,33.87
2022-10-26T06:26:40.773Z,33.20
2022-10-26T06:31:47.333Z,32.17
2022-10-26T06:41:56.882Z,34.67
2022-10-26T06:47:07.492Z,32.97
2022-10-26T06:52:20.023Z,31.57
2022-10-26T06:57:29.078Z,30.77
2022-10-26T07:02:33.578Z,31.17
2022-10-26T07:07:36.312Z,29.73
2022-10-26T07:12:41.824Z,29.40
2022-10-26T07:17:48.852Z,27.33
2022-10-26T07:22:57.859Z,28.27
2022-10-26T07:28:02.217Z,25.73
2022-10-26T07:33:08.893Z,25.93
2022-10-26T07:38:12.809Z,23.90
2022-10-26T07:43:17.961Z,21.67
2022-10-26T07:48:19.822Z,21.80
2022-10-26T07:53:30.547Z,20.97
2022-10-26T07:58:36.377Z,20.70
2022-10-26T08:03:38.374Z,19.27
2022-10-26T08:08:49.899Z,18.17
2022-10-26T08:13:56.514Z,19.13
2022-10-26T08:19:01.862Z,20.77
2022-10-26T08:24:05.042Z,18.17
2022-10-26T08:29:10.229Z,18.83
2022-10-26T08:34:12.142Z,16.88
2022-10-26T08:39:16.236Z,14.60
2022-10-26T08:44:23.040Z,14.13
2022-10-26T08:49:54.809Z,14.10
2022-10-26T08:54:57.888Z,12.73
2022-10-26T09:00:03.899Z,13.02
2022-10-26T09:05:16.306Z,11.98
2022-10-26T09:11:02.804Z,10.40
2022-10-26T09:16:23.738Z,9.68
2022-10-26T09:21:31.200Z,8.35
2022-10-26T09:26:55.010Z,9.02
2022-10-26T09:31:59.363Z,9.68
2022-10-26T09:37:24.640Z,9.20
2022-10-26T09:42:36.701Z,8.95
2022-10-26T09:47:47.071Z,8.77
2022-10-26T09:52:53.503Z,8.95
2022-10-26T09:57:57.886Z,8.93
2022-10-26T10:03:02.132Z,8.63
2022-10-26T10:08:17.611Z,8.85
2022-10-26T10:13:26.130Z,8.25
2022-10-26T10:18:32.718Z,9.13
2022-10-26T10:23:53.416Z,8.35
2022-10-26T10:29:00.984Z,7.50
2022-10-26T10:34:17.999Z,7.63
2022-10-26T10:39:35.648Z,7.65
2022-10-26T10:44:46.728Z,6.95
2022-10-26T10:50:00.416Z,6.53
2022-10-26T10:55:33.046Z,6.78
2022-10-26T11:00:37.427Z,6.45
2022-10-26T11:06:09.526Z,6.75
2022-10-26T11:11:25.706Z,6.38
2022-10-26T11:16:33.857Z,5.60
2022-10-26T11:21:41.239Z,6.10
2022-10-26T11:26:55.836Z,4.95
2022-10-26T11:32:11.313Z,5.40
2022-10-26T11:37:45.589Z,5.07
2022-10-26T11:42:58.135Z,5.70
2022-10-26T11:48:28.320Z,5.40
2022-10-26T11:53:41.276Z,5.30
2022-10-26T11:58:46.377Z,5.53
2022-10-26T12:03:50.989Z,5.57
2022-10-26T12:08:59.968Z,5.60
2022-10-26T12:14:17.928Z,5.35
2022-10-26T12:19:30.255Z,4.93
2022-10-26T12:24:35.588Z,5.28
2022-10-26T12:29:46.902Z,4.57
2022-10-26T12:34:51.873Z,5.00
2022-10-26T12:39:53.915Z,4.57
2022-10-26T12:44:58.930Z,4.85
2022-10-26T12:50:00.770Z,4.07
2022-10-26T12:55:28.353Z,3.20
2022-10-26T13:00:30.590Z,2.63
2022-10-26T13:06:07.638Z,3.20
2022-10-26T13:11:21.606Z,3.22
2022-10-26T13:16:24.777Z,3.60
2022-10-26T13:21:27.516Z,3.67
2022-10-26T13:27:07.309Z,3.92
2022-10-26T13:32:14.089Z,3.40
2022-10-26T13:37:27.265Z,3.58
2022-10-26T13:42:45.618Z,3.83
2022-10-26T13:48:12.852Z,3.90
2022-10-26T13:53:24.557Z,3.63
2022-10-26T13:58:33.193Z,4.53
2022-10-26T14:03:40.068Z,4.45
2022-10-26T14:08:44.642Z,4.95
2022-10-26T14:13:49.892Z,3.97
2022-10-26T14:18:52.339Z,6.13
2022-10-26T14:23:56.213Z,8.02
2022-10-26T14:29:00.728Z,4.18
2022-10-26T14:34:06.365Z,4.15
2022-10-26T14:39:18.273Z,3.80
2022-10-26T14:44:23.969Z,4.47
2022-10-26T14:49:27.834Z,4.15
2022-10-26T14:54:30.204Z,4.18
2022-10-26T14:59:32.121Z,4.60
2022-10-26T15:04:35.010Z,3.83
2022-10-26T15:09:46.257Z,3.38
2022-10-26T15:14:54.124Z,3.65
2022-10-26T15:19:56.087Z,3.08
2022-10-26T15:24:59.582Z,3.28
2022-10-26T15:30:37.154Z,2.95
2022-10-26T15:35:41.452Z,3.15
2022-10-26T15:40:47.117Z,3.35
2022-10-26T15:45:49.223Z,3.40
2022-10-26T15:50:53.700Z,3.28
2022-10-26T15:55:57.446Z,3.00
2022-10-26T16:00:59.888Z,2.90
2022-10-26T16:06:02.717Z,3.17
2022-10-26T16:11:04.870Z,3.42
2022-10-26T16:16:15.895Z,3.40
2022-10-26T16:21:23.356Z,3.75
2022-10-26T16:26:25.420Z,3.05
2022-10-26T16:31:30.250Z,3.05
2022-10-26T16:36:34.677Z,3.88
2022-10-26T16:41:36.928Z,3.15
2022-10-26T16:46:41.328Z,3.22
2022-10-26T16:51:45.508Z,3.65
2022-10-26T16:56:47.364Z,4.03
2022-10-26T17:01:51.427Z,4.63
2022-10-26T17:06:58.099Z,4.95
2022-10-26T17:12:02.156Z,4.05
2022-10-26T17:17:05.032Z,3.97
2022-10-26T17:22:09.071Z,3.70
2022-10-26T17:27:13.351Z,3.65
2022-10-26T17:32:18.319Z,4.53
2022-10-26T17:37:33.923Z,5.70
2022-10-26T17:42:40.670Z,5.13
2022-10-26T17:47:43.829Z,5.90
2022-10-26T17:52:48.371Z,5.88
2022-10-26T17:57:54.563Z,6.65
2022-10-26T18:02:56.430Z,6.80
2022-10-26T18:07:59.384Z,7.47
2022-10-26T18:13:03.782Z,7.07
2022-10-26T18:18:07.931Z,6.90
2022-10-26T18:23:10.067Z,10.00
2022-10-26T18:28:17.558Z,10.23
2022-10-26T18:33:19.750Z,9.20
2022-10-26T18:38:21.684Z,8.82
2022-10-26T18:43:23.891Z,9.75
2022-10-26T18:48:25.769Z,9.25
2022-10-26T18:53:27.677Z,10.18
2022-10-26T18:58:31.525Z,9.38
2022-10-26T19:03:33.967Z,10.32
2022-10-26T19:08:38.079Z,9.68
2022-10-26T19:13:42.455Z,10.80
2022-10-26T19:18:44.593Z,10.45
2022-10-26T19:23:57.744Z,10.25
2022-10-26T19:29:06.174Z,9.90
2022-10-26T19:34:11.333Z,10.38
2022-10-26T19:39:15.447Z,10.20
2022-10-26T19:44:22.019Z,10.57
2022-10-26T19:49:29.343Z,10.95
2022-10-26T19:54:31.377Z,10.63
2022-10-26T19:59:35.489Z,11.43
2022-10-26T20:04:40.496Z,10.77
2022-10-26T20:09:42.320Z,10.80
2022-10-26T20:14:46.128Z,11.40
2022-10-26T20:19:55.844Z,10.88
2022-10-26T20:25:00.426Z,11.23
2022-10-26T20:30:02.263Z,11.98
2022-10-26T20:35:06.217Z,11.48
2022-10-26T20:40:10.594Z,11.50
2022-10-26T20:45:16.790Z,11.57
2022-10-26T20:50:27.032Z,12.60
2022-10-26T20:55:46.403Z,11.80
2022-10-26T21:00:59.368Z,11.70
2022-10-26T21:06:10.435Z,12.38
2022-10-26T21:11:14.553Z,11.63
2022-10-26T21:16:17.939Z,11.70
2022-10-26T21:21:30.294Z,12.60
2022-10-26T21:26:32.196Z,12.13
2022-10-26T21:31:36.197Z,12.40
2022-10-26T21:36:40.130Z,12.93
2022-10-26T21:41:44.466Z,12.85
2022-10-26T21:46:50.816Z,13.10
2022-10-26T21:51:55.080Z,12.13
2022-10-26T21:57:00.443Z,11.98
2022-10-26T22:02:04.565Z,11.70
2022-10-26T22:07:06.448Z,12.88
2022-10-26T22:12:08.710Z,11.88
2022-10-26T22:17:15.260Z,13.23
2022-10-26T22:22:21.882Z,13.10
2022-10-26T22:27:25.856Z,13.52
2022-10-26T22:32:27.654Z,13.48
2022-10-26T22:37:31.951Z,12.73
2022-10-26T22:42:35.846Z,11.93
2022-10-26T22:47:40.086Z,13.60
2022-10-26T22:52:47.896Z,11.85
2022-10-26T22:57:50.034Z,12.30
2022-10-26T23:02:56.782Z,13.07
2022-10-26T23:08:00.801Z,13.32
2022-10-26T23:13:08.185Z,13.88
2022-10-26T23:18:13.448Z,14.82
2022-10-26T23:23:18.978Z,14.27
2022-10-26T23:28:20.816Z,15.30
2022-10-26T23:33:27.441Z,13.77
2022-10-26T23:38:34.634Z,13.18
2022-10-26T23:43:36.475Z,12.85
2022-10-26T23:48:45.276Z,12.95
2022-10-26T23:53:51.207Z,12.43
2022-10-26T23:58:57.645Z,13.77
